createdAt,value
2023-04-27T00:01:12.746Z,3.17
2023-04-27T00:03:46.132Z,3.60
2023-04-27T00:06:18.945Z,3.70
2023-04-27T00:08:52.262Z,3.35
2023-04-27T00:11:24.373Z,3.45
2023-04-27T00:13:57.146Z,3.72
2023-04-27T00:16:30.162Z,4.25
2023-04-27T00:19:02.537Z,3.62
2023-04-27T00:21:34.700Z,3.55
2023-04-27T00:24:07.298Z,4.55
2023-04-27T00:26:39.716Z,3.80
2023-04-27T00:29:12.041Z,3.67
2023-04-27T00:31:44.500Z,3.47
2023-04-27T00:34:16.819Z,3.00
2023-04-27T00:36:51.036Z,3.42
2023-04-27T00:39:24.517Z,3.13
2023-04-27T00:41:56.597Z,3.95
2023-04-27T00:44:29.485Z,3.65
2023-04-27T00:47:05.263Z,3.25
2023-04-27T00:49:38.157Z,4.05
2023-04-27T00:52:10.348Z,3.92
2023-04-27T00:54:43.302Z,3.77
2023-04-27T00:57:16.534Z,4.50
2023-04-27T00:59:49.284Z,4.05
2023-04-27T01:02:22.180Z,4.22
2023-04-27T01:04:55.214Z,4.53
2023-04-27T01:07:28.126Z,4.37
2023-04-27T01:10:00.520Z,4.65
2023-04-27T01:12:33.946Z,4.33
2023-04-27T01:15:07.843Z,4.67
2023-04-27T01:17:40.073Z,4.45
2023-04-27T01:20:12.708Z,4.65
2023-04-27T01:22:44.691Z,4.80
2023-04-27T01:25:16.810Z,4.28
2023-04-27T01:27:50.338Z,3.95
2023-04-27T01:30:26.245Z,4.37
2023-04-27T01:32:58.602Z,4.08
2023-04-27T01:35:31.840Z,4.30
2023-04-27T01:38:04.605Z,4.03
2023-04-27T01:40:36.725Z,3.83
2023-04-27T01:43:08.990Z,4.78
2023-04-27T01:45:41.179Z,4.72
2023-04-27T01:48:13.586Z,4.75
2023-04-27T01:50:47.529Z,5.30
2023-04-27T01:53:19.538Z,4.62
2023-04-27T01:55:53.016Z,4.58
2023-04-27T01:58:25.240Z,4.55
2023-04-27T02:00:58.078Z,4.90
2023-04-27T02:03:30.448Z,4.78
2023-04-27T02:06:02.774Z,4.97
2023-04-27T02:08:36.144Z,4.70
2023-04-27T02:11:08.502Z,4.78
2023-04-27T02:13:41.045Z,5.95
2023-04-27T02:16:13.243Z,5.12
2023-04-27T02:18:45.247Z,5.55
2023-04-27T02:21:17.442Z,7.08
2023-04-27T02:23:50.710Z,5.60
2023-04-27T02:26:25.530Z,5.47
2023-04-27T02:28:57.832Z,5.65
2023-04-27T02:31:30.360Z,5.45
2023-04-27T02:34:03.025Z,5.00
2023-04-27T02:36:35.160Z,6.80
2023-04-27T02:39:07.234Z,5.67
2023-04-27T02:41:40.937Z,5.50
2023-04-27T02:44:13.073Z,5.55
2023-04-27T02:46:45.401Z,6.03
2023-04-27T02:49:18.040Z,5.53
2023-04-27T02:51:50.178Z,5.70
2023-04-27T02:54:22.686Z,5.67
2023-04-27T02:56:54.828Z,5.22
2023-04-27T02:59:27.144Z,5.60
2023-04-27T03:01:59.291Z,6.20
2023-04-27T03:04:31.810Z,5.53
2023-04-27T03:07:04.946Z,6.22
2023-04-27T03:09:37.928Z,6.25
2023-04-27T03:12:10.086Z,5.87
2023-04-27T03:14:42.218Z,6.87
2023-04-27T03:17:14.515Z,5.83
2023-04-27T03:19:49.303Z,6.33
2023-04-27T03:22:21.556Z,6.25
2023-04-27T03:24:53.624Z,6.53
2023-04-27T03:27:25.873Z,7.28
2023-04-27T03:29:58.090Z,6.90
2023-04-27T03:32:30.278Z,6.42
2023-04-27T03:35:03.398Z,6.42
2023-04-27T03:37:35.795Z,6.75
2023-04-27T03:40:08.945Z,6.75
2023-04-27T03:42:41.304Z,6.83
2023-04-27T03:45:13.946Z,6.97
2023-04-27T03:47:46.893Z,6.17
2023-04-27T03:50:19.918Z,6.60
2023-04-27T03:55:26.051Z,5.78
2023-04-27T03:57:58.202Z,5.80
2023-04-27T04:00:30.324Z,5.35
2023-04-27T04:03:02.728Z,5.45
2023-04-27T04:05:35.310Z,5.00
2023-04-27T04:08:07.519Z,4.55
2023-04-27T04:10:39.648Z,6.17
2023-04-27T04:13:12.908Z,5.45
2023-04-27T04:15:45.658Z,6.35
2023-04-27T04:18:17.955Z,6.10
2023-04-27T04:20:50.508Z,6.00
2023-04-27T04:23:23.012Z,6.37
2023-04-27T04:25:57.430Z,6.10
2023-04-27T04:28:31.886Z,6.95
2023-04-27T04:31:05.876Z,6.25
2023-04-27T04:33:38.968Z,6.90
2023-04-27T04:36:11.658Z,6.75
2023-04-27T04:38:44.044Z,7.22
2023-04-27T04:41:16.856Z,7.47
2023-04-27T04:43:50.057Z,6.60
2023-04-27T04:46:24.392Z,7.50
2023-04-27T04:48:56.583Z,6.28
2023-04-27T04:51:28.890Z,6.22
2023-04-27T04:54:02.159Z,6.42
2023-04-27T04:56:34.527Z,5.83
2023-04-27T04:59:07.551Z,5.65
2023-04-27T05:01:39.674Z,6.15
2023-04-27T05:04:12.308Z,5.62
2023-04-27T05:06:44.991Z,5.90
2023-04-27T05:09:17.798Z,4.47
2023-04-27T05:11:49.924Z,5.33
2023-04-27T05:14:22.183Z,5.20
2023-04-27T05:16:54.699Z,5.50
2023-04-27T05:19:27.267Z,5.35
2023-04-27T05:22:00.202Z,5.42
2023-04-27T05:24:32.921Z,5.60
2023-04-27T05:27:05.549Z,5.85
2023-04-27T05:29:37.603Z,6.62
2023-04-27T05:32:10.192Z,5.42
2023-04-27T05:34:44.371Z,5.62
2023-04-27T05:37:17.177Z,6.50
2023-04-27T05:39:49.750Z,6.90
2023-04-27T05:42:22.225Z,5.90
2023-04-27T05:44:54.349Z,6.55
2023-04-27T05:47:27.296Z,8.25
2023-04-27T05:49:59.684Z,5.62
2023-04-27T05:52:34.172Z,4.30
2023-04-27T05:55:08.513Z,4.28
2023-04-27T05:57:41.578Z,2.22
2023-04-27T06:00:15.388Z,2.80
2023-04-27T06:02:48.371Z,3.58
2023-04-27T06:05:20.921Z,2.90
2023-04-27T06:07:53.278Z,3.35
2023-04-27T06:10:25.809Z,2.60
2023-04-27T06:12:59.080Z,3.33
2023-04-27T06:15:31.360Z,2.40
2023-04-27T06:18:03.747Z,2.27
2023-04-27T06:20:36.643Z,3.22
2023-04-27T06:23:09.298Z,3.45
2023-04-27T06:25:41.929Z,3.45
2023-04-27T06:28:14.070Z,2.87
2023-04-27T06:30:46.629Z,3.50
2023-04-27T06:33:18.625Z,3.60
2023-04-27T06:35:51.329Z,3.47
2023-04-27T06:38:23.765Z,4.20
2023-04-27T06:40:56.518Z,4.03
2023-04-27T06:43:29.133Z,3.87
2023-04-27T06:46:03.600Z,3.98
2023-04-27T06:48:35.852Z,4.08
2023-04-27T06:51:08.263Z,3.67
2023-04-27T06:53:41.352Z,4.58
2023-04-27T06:56:13.979Z,3.70
2023-04-27T06:58:46.536Z,4.12
2023-04-27T07:01:18.684Z,3.60
2023-04-27T07:03:51.339Z,3.42
2023-04-27T07:06:25.745Z,3.08
2023-04-27T07:08:58.081Z,4.03
2023-04-27T07:11:30.375Z,3.35
2023-04-27T07:14:02.717Z,4.20
2023-04-27T07:16:35.124Z,3.65
2023-04-27T07:19:07.330Z,3.80
2023-04-27T07:21:39.932Z,3.98
2023-04-27T07:24:12.424Z,5.55
2023-04-27T07:26:44.737Z,2.90
2023-04-27T07:29:26.208Z,3.55
2023-04-27T07:31:53.306Z,3.27
2023-04-27T07:34:26.056Z,3.42
2023-04-27T07:36:58.842Z,2.75
2023-04-27T07:39:31.385Z,3.15
2023-04-27T07:42:05.969Z,4.55
2023-04-27T07:44:38.314Z,3.70
2023-04-27T07:47:10.854Z,3.25
2023-04-27T07:49:44.607Z,4.58
2023-04-27T07:52:17.245Z,3.70
2023-04-27T07:54:49.773Z,3.10
2023-04-27T07:57:22.195Z,26.55
2023-04-27T07:59:54.837Z,13.22
2023-04-27T08:02:32.336Z,3.22
2023-04-27T08:05:05.373Z,2.98
2023-04-27T08:07:44.168Z,4.35
2023-04-27T08:10:12.137Z,3.77
2023-04-27T08:12:44.934Z,3.02
2023-04-27T08:15:17.243Z,3.47
2023-04-27T08:17:49.468Z,2.47
2023-04-27T08:20:21.778Z,3.25
2023-04-27T08:22:54.339Z,4.03
2023-04-27T08:25:26.477Z,3.10
2023-04-27T08:27:58.755Z,4.20
2023-04-27T08:30:31.316Z,4.20
2023-04-27T08:33:03.982Z,5.35
2023-04-27T08:35:36.778Z,4.25
2023-04-27T08:38:09.320Z,5.30
2023-04-27T08:40:45.327Z,5.37
2023-04-27T08:43:17.683Z,4.78
2023-04-27T08:45:51.052Z,2.72
2023-04-27T08:48:23.807Z,4.10
2023-04-27T08:50:57.720Z,3.75
2023-04-27T08:53:30.538Z,4.10
2023-04-27T08:56:02.852Z,3.25
2023-04-27T08:58:38.846Z,4.28
2023-04-27T09:01:11.669Z,4.45
2023-04-27T09:03:45.990Z,2.95
2023-04-27T09:06:19.110Z,4.33
2023-04-27T09:08:52.307Z,2.95
2023-04-27T09:11:34.043Z,3.55
2023-04-27T09:14:17.871Z,4.17
2023-04-27T09:16:59.710Z,3.40
2023-04-27T09:19:32.464Z,2.62
2023-04-27T09:22:07.547Z,3.60
2023-04-27T09:24:39.888Z,4.53
2023-04-27T09:27:15.101Z,5.45
2023-04-27T09:29:47.408Z,4.30
2023-04-27T09:32:21.251Z,4.35
2023-04-27T09:34:53.496Z,3.37
2023-04-27T09:37:27.313Z,4.45
2023-04-27T09:40:00.236Z,4.10
2023-04-27T09:45:07.774Z,4.70
2023-04-27T09:47:40.909Z,4.10
2023-04-27T09:50:17.434Z,4.20
2023-04-27T09:52:49.842Z,5.50
2023-04-27T09:55:27.653Z,3.35
2023-04-27T09:58:22.088Z,3.40
2023-04-27T10:01:28.893Z,12.60
2023-04-27T10:04:23.520Z,3.55
2023-04-27T10:07:10.101Z,4.05
2023-04-27T10:09:44.827Z,4.35
2023-04-27T10:12:31.472Z,3.83
2023-04-27T10:15:15.052Z,3.00
2023-04-27T10:17:53.320Z,2.80
2023-04-27T10:20:34.096Z,3.12
2023-04-27T10:23:06.760Z,2.50
2023-04-27T10:25:41.391Z,4.10
2023-04-27T10:28:21.377Z,2.95
2023-04-27T10:30:55.157Z,3.58
2023-04-27T10:33:27.948Z,3.70
2023-04-27T10:36:01.125Z,3.27
2023-04-27T10:38:33.498Z,2.77
2023-04-27T10:41:06.256Z,2.80
2023-04-27T10:43:39.119Z,4.58
2023-04-27T10:46:13.215Z,3.50
2023-04-27T10:51:18.503Z,2.72
2023-04-27T10:53:55.290Z,3.60
2023-04-27T10:56:28.562Z,2.83
2023-04-27T10:59:06.364Z,3.22
2023-04-27T11:01:39.072Z,3.55
2023-04-27T11:04:11.684Z,2.92
2023-04-27T11:06:46.850Z,3.77
2023-04-27T11:09:29.372Z,3.22
2023-04-27T11:12:01.916Z,2.08
2023-04-27T11:14:35.590Z,2.10
2023-04-27T11:17:09.531Z,2.52
2023-04-27T11:19:48.723Z,3.58
2023-04-27T11:22:21.153Z,2.50
2023-04-27T11:24:54.839Z,2.37
2023-04-27T11:27:30.767Z,2.92
2023-04-27T11:30:03.067Z,3.42
2023-04-27T11:32:35.599Z,3.20
2023-04-27T11:35:09.597Z,3.15
2023-04-27T11:37:42.586Z,3.47
2023-04-27T11:40:19.253Z,2.45
2023-04-27T11:43:03.732Z,2.67
2023-04-27T11:45:36.004Z,3.30
2023-04-27T11:48:08.349Z,2.50
2023-04-27T11:50:40.602Z,3.50
2023-04-27T11:53:12.584Z,3.05
2023-04-27T11:55:45.194Z,4.42
2023-04-27T11:58:17.938Z,3.37
2023-04-27T12:00:50.418Z,4.30
2023-04-27T12:03:22.733Z,3.60
2023-04-27T12:05:55.982Z,3.60
2023-04-27T12:08:28.787Z,3.45
2023-04-27T12:11:01.093Z,3.65
2023-04-27T12:13:33.313Z,3.08
2023-04-27T12:16:05.720Z,3.77
2023-04-27T12:18:38.177Z,2.92
2023-04-27T12:21:11.144Z,2.10
2023-04-27T12:23:44.223Z,2.67
2023-04-27T12:26:16.780Z,3.33
2023-04-27T12:28:50.943Z,2.22
2023-04-27T12:31:27.581Z,2.22
2023-04-27T12:33:59.465Z,4.55
2023-04-27T12:36:32.802Z,2.22
2023-04-27T12:39:16.703Z,2.25
2023-04-27T12:41:51.294Z,2.52
2023-04-27T12:44:24.995Z,2.15
2023-04-27T12:46:57.582Z,3.80
2023-04-27T12:49:30.104Z,3.00
2023-04-27T12:52:02.692Z,2.05
2023-04-27T12:54:35.373Z,2.42
2023-04-27T12:57:07.644Z,2.55
2023-04-27T12:59:41.704Z,2.35
2023-04-27T13:02:14.492Z,2.35
2023-04-27T13:04:47.145Z,1.92
2023-04-27T13:07:20.017Z,3.02
2023-04-27T13:09:54.693Z,3.25
2023-04-27T13:12:28.199Z,2.50
2023-04-27T13:15:00.604Z,2.52
2023-04-27T13:17:34.529Z,2.33
2023-04-27T13:20:07.754Z,1.77
2023-04-27T13:22:40.919Z,1.77
2023-04-27T13:25:13.332Z,2.65
2023-04-27T13:27:45.826Z,3.92
2023-04-27T13:30:18.312Z,2.47
2023-04-27T13:32:50.646Z,3.05
2023-04-27T13:35:24.168Z,2.20
2023-04-27T13:37:57.048Z,2.33
2023-04-27T13:40:30.817Z,1.80
2023-04-27T13:43:03.517Z,2.47
2023-04-27T13:45:36.206Z,2.98
2023-04-27T13:48:08.911Z,2.60
2023-04-27T13:50:41.095Z,2.12
2023-04-27T13:53:13.308Z,2.60
2023-04-27T13:55:46.371Z,2.25
2023-04-27T13:58:18.583Z,2.00
2023-04-27T14:00:53.038Z,3.02
2023-04-27T14:03:25.816Z,2.00
2023-04-27T14:05:58.587Z,2.10
2023-04-27T14:08:31.035Z,2.10
2023-04-27T14:11:03.380Z,2.10
2023-04-27T14:13:35.750Z,1.90
2023-04-27T14:16:09.253Z,2.85
2023-04-27T14:18:41.456Z,2.52
2023-04-27T14:21:13.941Z,1.90
2023-04-27T14:23:46.901Z,1.90
2023-04-27T14:26:19.314Z,2.05
2023-04-27T14:28:52.090Z,2.00
2023-04-27T14:31:25.057Z,2.55
2023-04-27T14:33:57.841Z,1.50
2023-04-27T14:36:30.260Z,1.98
2023-04-27T14:39:04.282Z,1.57
2023-04-27T14:44:09.757Z,2.00
2023-04-27T14:46:42.238Z,2.12
2023-04-27T14:49:15.197Z,1.87
2023-04-27T14:51:47.690Z,1.45
2023-04-27T14:54:20.138Z,1.60
2023-04-27T14:56:53.006Z,2.00
2023-04-27T14:59:25.785Z,2.00
2023-04-27T15:01:58.192Z,2.22
2023-04-27T15:04:31.235Z,2.27
2023-04-27T15:07:03.873Z,2.27
2023-04-27T15:09:36.442Z,2.33
2023-04-27T15:12:08.661Z,2.27
2023-04-27T15:14:41.347Z,3.00
2023-04-27T15:17:14.409Z,2.47
2023-04-27T15:19:46.883Z,2.75
2023-04-27T15:22:18.842Z,2.25
2023-04-27T15:24:51.350Z,2.12
2023-04-27T15:27:24.426Z,2.20
2023-04-27T15:29:56.887Z,2.60
2023-04-27T15:32:30.527Z,2.12
2023-04-27T15:35:02.872Z,1.60
2023-04-27T15:37:37.411Z,2.72
2023-04-27T15:40:10.806Z,2.50
2023-04-27T15:42:43.759Z,3.07
2023-04-27T15:45:15.884Z,2.90
2023-04-27T15:47:48.293Z,2.22
2023-04-27T15:50:20.976Z,2.08
2023-04-27T15:52:54.227Z,2.20
2023-04-27T15:55:26.718Z,1.92
2023-04-27T15:57:59.053Z,8.33
2023-04-27T16:00:31.576Z,2.10
2023-04-27T16:03:04.090Z,2.47
2023-04-27T16:05:37.135Z,2.00
2023-04-27T16:08:09.194Z,1.95
2023-04-27T16:10:41.840Z,2.75
2023-04-27T16:13:14.653Z,2.50
2023-04-27T16:15:47.032Z,2.92
2023-04-27T16:18:19.112Z,3.00
2023-04-27T16:20:51.712Z,2.70
2023-04-27T16:23:24.524Z,2.67
2023-04-27T16:25:56.932Z,4.12
2023-04-27T16:28:29.825Z,3.42
2023-04-27T16:31:02.154Z,2.52
2023-04-27T16:33:34.855Z,2.45
2023-04-27T16:36:07.851Z,5.28
2023-04-27T16:38:40.104Z,2.80
2023-04-27T16:41:16.778Z,2.62
2023-04-27T16:43:51.259Z,2.50
2023-04-27T16:46:23.514Z,2.83
2023-04-27T16:48:58.626Z,2.95
2023-04-27T16:51:31.253Z,2.52
2023-04-27T16:54:03.850Z,2.22
2023-04-27T16:56:37.343Z,2.33
2023-04-27T16:59:11.328Z,2.47
2023-04-27T17:01:43.798Z,2.92
2023-04-27T17:04:16.460Z,2.58
2023-04-27T17:06:49.286Z,3.60
2023-04-27T17:09:22.174Z,3.52
2023-04-27T17:11:54.718Z,4.70
2023-04-27T17:14:27.118Z,4.30
2023-04-27T17:17:00.967Z,3.83
2023-04-27T17:19:33.226Z,3.27
2023-04-27T17:22:07.762Z,3.17
2023-04-27T17:24:40.357Z,3.60
2023-04-27T17:27:13.489Z,2.87
2023-04-27T17:29:46.729Z,3.45
2023-04-27T17:32:19.490Z,3.83
2023-04-27T17:34:52.690Z,3.95
2023-04-27T17:37:26.986Z,3.95
2023-04-27T17:40:01.997Z,4.50
2023-04-27T17:42:35.284Z,4.20
2023-04-27T17:45:10.415Z,3.95
2023-04-27T17:47:46.936Z,5.12
2023-04-27T17:50:19.998Z,4.70
2023-04-27T17:52:54.160Z,4.75
2023-04-27T17:55:27.451Z,5.37
2023-04-27T17:58:04.377Z,4.20
2023-04-27T18:00:39.300Z,4.17
2023-04-27T18:03:21.745Z,3.25
2023-04-27T18:05:58.102Z,4.22
2023-04-27T18:08:31.320Z,4.10
2023-04-27T18:11:04.246Z,4.03
2023-04-27T18:13:40.287Z,4.22
2023-04-27T18:16:25.668Z,3.77
2023-04-27T18:19:00.524Z,4.08
2023-04-27T18:21:33.974Z,3.80
2023-04-27T18:24:10.420Z,4.08
2023-04-27T18:26:44.246Z,3.95
2023-04-27T18:29:17.860Z,4.62
2023-04-27T18:31:51.391Z,4.65
2023-04-27T18:34:24.106Z,5.05
2023-04-27T18:36:56.782Z,4.45
2023-04-27T18:39:29.318Z,4.00
2023-04-27T18:42:01.854Z,4.42
2023-04-27T18:44:35.605Z,3.92
2023-04-27T18:47:10.327Z,4.10
2023-04-27T18:49:43.137Z,4.72
2023-04-27T18:52:15.795Z,4.45
2023-04-27T18:54:49.424Z,4.58
2023-04-27T18:57:23.409Z,6.57
2023-04-27T19:00:09.312Z,5.85
2023-04-27T19:02:46.262Z,5.55
2023-04-27T19:05:20.741Z,5.62
2023-04-27T19:08:03.597Z,5.50
2023-04-27T19:10:37.949Z,5.15
2023-04-27T19:13:18.314Z,5.47
2023-04-27T19:15:51.901Z,5.80
2023-04-27T19:18:27.201Z,5.00
2023-04-27T19:21:00.577Z,5.30
2023-04-27T19:23:33.713Z,4.85
2023-04-27T19:26:13.100Z,4.78
2023-04-27T19:28:46.216Z,5.28
2023-04-27T19:31:21.937Z,4.72
2023-04-27T19:34:04.070Z,5.12
2023-04-27T19:36:35.185Z,4.67
2023-04-27T19:39:11.207Z,9.75
2023-04-27T19:41:46.352Z,5.47
2023-04-27T19:44:22.681Z,4.10
2023-04-27T19:46:59.027Z,4.80
2023-04-27T19:49:35.495Z,5.40
2023-04-27T19:52:09.963Z,4.78
2023-04-27T19:54:48.534Z,4.58
2023-04-27T19:57:22.690Z,4.72
2023-04-27T19:59:57.216Z,6.15
2023-04-27T20:02:30.761Z,4.97
2023-04-27T20:05:04.824Z,5.22
2023-04-27T20:07:37.821Z,5.50
2023-04-27T20:10:12.724Z,4.40
2023-04-27T20:12:56.087Z,5.70
2023-04-27T20:15:20.638Z,4.80
2023-04-27T20:17:53.471Z,5.45
2023-04-27T20:20:26.036Z,5.03
2023-04-27T20:22:58.493Z,5.10
2023-04-27T20:25:31.187Z,5.35
2023-04-27T20:28:03.468Z,5.75
2023-04-27T20:30:35.746Z,5.15
2023-04-27T20:33:08.106Z,5.50
2023-04-27T20:35:41.363Z,5.60
2023-04-27T20:38:14.034Z,4.83
2023-04-27T20:40:46.518Z,5.45
2023-04-27T20:43:19.047Z,5.30
2023-04-27T20:45:51.369Z,5.22
2023-04-27T20:48:24.121Z,5.40
2023-04-27T20:50:57.220Z,7.85
2023-04-27T20:53:29.848Z,5.10
2023-04-27T20:56:02.697Z,5.62
2023-04-27T20:58:34.982Z,6.50
2023-04-27T21:01:07.260Z,5.55
2023-04-27T21:03:39.685Z,4.83
2023-04-27T21:06:11.895Z,6.80
2023-04-27T21:08:44.008Z,5.40
2023-04-27T21:11:18.140Z,5.03
2023-04-27T21:13:50.373Z,6.45
2023-04-27T21:16:23.075Z,5.53
2023-04-27T21:18:55.391Z,5.72
2023-04-27T21:21:27.567Z,5.50
2023-04-27T21:24:07.344Z,5.28
2023-04-27T21:26:34.598Z,5.33
2023-04-27T21:29:08.476Z,4.97
2023-04-27T21:31:41.141Z,5.20
2023-04-27T21:34:13.791Z,5.37
2023-04-27T21:36:46.146Z,5.72
2023-04-27T21:39:18.810Z,5.35
2023-04-27T21:41:51.646Z,5.58
2023-04-27T21:44:24.300Z,4.95
2023-04-27T21:46:56.660Z,5.00
2023-04-27T21:49:28.875Z,5.45
2023-04-27T21:52:01.027Z,5.97
2023-04-27T21:54:33.322Z,7.22
2023-04-27T21:57:05.843Z,5.75
2023-04-27T21:59:38.069Z,5.87
2023-04-27T22:02:10.436Z,5.65
2023-04-27T22:04:43.603Z,5.03
2023-04-27T22:07:16.598Z,6.28
2023-04-27T22:09:49.316Z,6.37
2023-04-27T22:12:21.384Z,6.75
2023-04-27T22:14:53.846Z,5.37
2023-04-27T22:17:26.124Z,6.65
2023-04-27T22:19:59.202Z,6.28
2023-04-27T22:22:36.759Z,6.08
2023-04-27T22:25:09.821Z,5.20
2023-04-27T22:27:44.852Z,6.00
2023-04-27T22:30:16.388Z,5.80
2023-04-27T22:32:48.741Z,5.58
2023-04-27T22:37:59.093Z,5.05
2023-04-27T22:40:31.823Z,5.40
2023-04-27T22:43:04.657Z,5.10
2023-04-27T22:45:38.654Z,5.95
2023-04-27T22:48:10.687Z,5.65
2023-04-27T22:50:42.635Z,5.22
2023-04-27T22:53:14.920Z,4.60
2023-04-27T22:55:47.122Z,5.97
2023-04-27T22:58:19.493Z,6.03
2023-04-27T23:00:51.647Z,5.47
2023-04-27T23:03:24.649Z,5.90
2023-04-27T23:05:57.078Z,5.75
2023-04-27T23:08:29.649Z,5.65
2023-04-27T23:11:02.785Z,5.20
2023-04-27T23:13:35.535Z,5.33
2023-04-27T23:16:10.448Z,5.00
2023-04-27T23:18:42.731Z,5.08
2023-04-27T23:21:14.889Z,5.50
2023-04-27T23:23:46.831Z,5.47
2023-04-27T23:26:19.400Z,8.48
2023-04-27T23:28:52.080Z,5.75
2023-04-27T23:31:26.000Z,4.90
2023-04-27T23:33:58.362Z,5.63
2023-04-27T23:36:30.929Z,5.67
2023-04-27T23:39:02.861Z,5.85
2023-04-27T23:41:34.936Z,6.20
2023-04-27T23:44:07.125Z,5.72
2023-04-27T23:46:39.416Z,5.95
2023-04-27T23:49:11.629Z,5.17
2023-04-27T23:51:44.005Z,5.35
2023-04-27T23:54:16.587Z,5.25
2023-04-27T23:56:48.910Z,5.65
2023-04-27T23:59:21.762Z,5.72
